createdAt,value
2023-10-29T00:02:13.130Z,6.50
2023-10-29T00:04:40.343Z,8.00
2023-10-29T00:07:08.041Z,7.03
2023-10-29T00:09:35.355Z,6.85
2023-10-29T00:12:02.277Z,7.50
2023-10-29T00:14:29.802Z,5.88
2023-10-29T00:16:57.906Z,7.15
2023-10-29T00:19:24.811Z,6.22
2023-10-29T00:21:51.757Z,7.15
2023-10-29T00:24:18.701Z,8.13
2023-10-29T00:26:45.712Z,6.82
2023-10-29T00:29:12.744Z,6.07
2023-10-29T00:31:39.691Z,7.70
2023-10-29T00:34:06.679Z,6.82
2023-10-29T00:36:33.626Z,7.68
2023-10-29T00:39:00.884Z,7.55
2023-10-29T00:41:27.969Z,7.55
2023-10-29T00:43:55.037Z,8.27
2023-10-29T00:46:22.181Z,7.65
2023-10-29T00:48:49.551Z,7.50
2023-10-29T00:51:16.683Z,11.85
2023-10-29T00:53:45.001Z,7.93
2023-10-29T00:56:15.164Z,11.25
2023-10-29T00:58:43.220Z,17.53
2023-10-29T01:01:10.209Z,17.15
2023-10-29T01:03:37.246Z,13.07
2023-10-29T01:06:04.953Z,13.88
2023-10-29T01:08:32.344Z,9.60
2023-10-29T01:10:59.280Z,7.93
2023-10-29T01:13:26.226Z,8.18
2023-10-29T01:15:53.497Z,9.95
2023-10-29T01:18:20.549Z,10.10
2023-10-29T01:20:47.680Z,8.57
2023-10-29T01:23:14.858Z,8.45
2023-10-29T01:25:42.982Z,7.88
2023-10-29T01:28:10.070Z,7.63
2023-10-29T01:30:36.982Z,7.25
2023-10-29T01:33:04.012Z,6.53
2023-10-29T01:35:31.087Z,6.13
2023-10-29T01:37:58.296Z,6.65
2023-10-29T01:40:25.248Z,7.28
2023-10-29T01:42:52.173Z,6.40
2023-10-29T01:45:19.158Z,7.25
2023-10-29T01:47:46.298Z,9.38
2023-10-29T01:50:14.644Z,9.48
2023-10-29T01:52:41.678Z,6.75
2023-10-29T01:55:08.822Z,7.28
2023-10-29T01:57:36.961Z,6.82
2023-10-29T02:00:07.516Z,7.65
2023-10-29T02:02:35.060Z,6.90
2023-10-29T02:05:05.894Z,9.70
2023-10-29T02:07:33.296Z,6.97
2023-10-29T02:10:00.324Z,7.57
2023-10-29T02:12:27.373Z,7.03
2023-10-29T02:14:54.305Z,5.97
2023-10-29T02:17:25.678Z,6.85
2023-10-29T02:19:53.152Z,7.25
2023-10-29T02:22:20.661Z,7.60
2023-10-29T02:24:47.822Z,7.47
2023-10-29T02:27:14.794Z,6.88
2023-10-29T02:29:41.828Z,9.98
2023-10-29T02:32:08.910Z,6.82
2023-10-29T02:34:35.834Z,6.47
2023-10-29T02:37:02.877Z,10.38
2023-10-29T02:39:29.782Z,8.05
2023-10-29T02:41:56.749Z,8.80
2023-10-29T02:44:23.763Z,7.57
2023-10-29T02:46:50.709Z,10.13
2023-10-29T02:49:17.622Z,7.35
2023-10-29T02:51:44.613Z,8.10
2023-10-29T02:54:11.619Z,9.30
2023-10-29T02:56:38.806Z,7.57
2023-10-29T02:59:05.922Z,7.30
2023-10-29T03:01:33.268Z,8.65
2023-10-29T03:04:00.462Z,8.40
2023-10-29T03:06:27.738Z,7.75
2023-10-29T03:08:54.720Z,9.95
2023-10-29T03:11:21.629Z,7.95
2023-10-29T03:13:48.560Z,8.85
2023-10-29T03:16:15.607Z,8.30
2023-10-29T03:18:42.533Z,8.70
2023-10-29T03:21:09.460Z,10.30
2023-10-29T03:23:36.461Z,10.32
2023-10-29T03:26:03.825Z,11.55
2023-10-29T03:28:31.304Z,11.45
2023-10-29T03:30:58.262Z,9.57
2023-10-29T03:33:25.305Z,9.32
2023-10-29T03:35:52.495Z,11.32
2023-10-29T03:38:19.740Z,10.35
2023-10-29T03:40:46.647Z,10.57
2023-10-29T03:43:13.730Z,11.52
2023-10-29T03:45:40.709Z,8.05
2023-10-29T03:48:07.806Z,10.15
2023-10-29T03:50:34.931Z,11.73
2023-10-29T03:53:01.858Z,11.18
2023-10-29T03:55:28.776Z,10.23
2023-10-29T03:57:55.702Z,10.68
2023-10-29T04:00:24.101Z,12.55
2023-10-29T04:02:51.193Z,12.45
2023-10-29T04:05:18.223Z,13.45
2023-10-29T04:07:45.181Z,10.95
2023-10-29T04:10:12.115Z,11.70
2023-10-29T04:12:39.297Z,11.10
2023-10-29T04:15:06.707Z,12.38
2023-10-29T04:17:34.236Z,12.63
2023-10-29T04:20:01.248Z,11.75
2023-10-29T04:22:28.395Z,11.88
2023-10-29T04:24:55.358Z,13.85
2023-10-29T04:27:22.629Z,11.05
2023-10-29T04:29:49.698Z,11.52
2023-10-29T04:32:16.724Z,12.00
2023-10-29T04:34:44.058Z,12.90
2023-10-29T04:37:11.053Z,11.02
2023-10-29T04:39:39.748Z,10.93
2023-10-29T04:42:06.991Z,11.02
2023-10-29T04:44:35.102Z,11.52
2023-10-29T04:47:05.119Z,11.25
2023-10-29T04:49:32.213Z,11.10
2023-10-29T04:51:59.166Z,9.85
2023-10-29T04:54:26.081Z,10.95
2023-10-29T04:56:53.077Z,11.63
2023-10-29T04:59:20.043Z,12.77
2023-10-29T05:01:47.058Z,12.38
2023-10-29T05:04:14.027Z,12.45
2023-10-29T05:06:40.978Z,10.40
2023-10-29T05:09:07.969Z,11.18
2023-10-29T05:11:36.964Z,10.98
2023-10-29T05:14:04.071Z,12.95
2023-10-29T05:16:31.277Z,11.27
2023-10-29T05:18:58.818Z,10.63
2023-10-29T05:21:25.707Z,10.70
2023-10-29T05:23:52.696Z,11.30
2023-10-29T05:26:21.694Z,10.32
2023-10-29T05:28:51.141Z,10.82
2023-10-29T05:31:18.193Z,11.13
2023-10-29T05:33:45.172Z,10.10
2023-10-29T05:36:12.142Z,9.80
2023-10-29T05:38:39.182Z,12.20
2023-10-29T05:41:06.505Z,9.93
2023-10-29T05:43:35.651Z,11.93
2023-10-29T05:46:02.655Z,11.40
2023-10-29T05:48:29.825Z,11.93
2023-10-29T05:50:56.825Z,14.30
2023-10-29T05:53:23.769Z,11.48
2023-10-29T05:55:52.124Z,12.77
2023-10-29T05:58:19.097Z,11.77
2023-10-29T06:00:46.405Z,11.60
2023-10-29T06:03:13.478Z,15.07
2023-10-29T06:05:40.607Z,12.52
2023-10-29T06:08:07.590Z,11.82
2023-10-29T06:10:34.754Z,15.02
2023-10-29T06:13:01.651Z,13.10
2023-10-29T06:15:28.633Z,12.82
2023-10-29T06:17:56.083Z,12.70
2023-10-29T06:20:23.607Z,14.35
2023-10-29T06:22:50.654Z,13.68
2023-10-29T06:25:18.091Z,12.45
2023-10-29T06:27:45.141Z,13.38
2023-10-29T06:30:12.556Z,15.10
2023-10-29T06:32:39.930Z,12.45
2023-10-29T06:35:07.490Z,13.55
2023-10-29T06:37:34.481Z,14.43
2023-10-29T06:40:02.044Z,13.50
2023-10-29T06:42:29.035Z,12.70
2023-10-29T06:44:56.040Z,11.82
2023-10-29T06:47:23.390Z,12.20
2023-10-29T06:49:52.081Z,14.57
2023-10-29T06:52:19.018Z,12.25
2023-10-29T06:54:46.144Z,11.20
2023-10-29T06:57:13.300Z,10.27
2023-10-29T06:59:40.711Z,12.10
2023-10-29T07:02:08.281Z,11.45
2023-10-29T07:04:35.357Z,11.52
2023-10-29T07:07:02.367Z,10.50
2023-10-29T07:09:29.332Z,14.80
2023-10-29T07:11:57.050Z,9.90
2023-10-29T07:14:24.145Z,11.27
2023-10-29T07:16:51.175Z,11.25
2023-10-29T07:19:18.297Z,10.38
2023-10-29T07:21:45.325Z,10.18
2023-10-29T07:24:12.600Z,14.20
2023-10-29T07:26:39.598Z,12.73
2023-10-29T07:29:07.136Z,11.85
2023-10-29T07:31:34.136Z,15.77
2023-10-29T07:34:01.177Z,13.45
2023-10-29T07:36:28.189Z,10.18
2023-10-29T07:38:55.216Z,13.48
2023-10-29T07:41:22.930Z,11.20
2023-10-29T07:43:51.000Z,12.93
2023-10-29T07:46:17.991Z,11.32
2023-10-29T07:48:45.026Z,11.02
2023-10-29T07:51:15.174Z,14.60
2023-10-29T07:53:42.841Z,15.75
2023-10-29T07:56:14.878Z,10.80
2023-10-29T07:58:42.110Z,13.40
2023-10-29T08:01:13.209Z,12.95
2023-10-29T08:03:41.553Z,12.18
2023-10-29T08:06:09.552Z,11.63
2023-10-29T08:08:38.509Z,12.65
2023-10-29T08:11:06.080Z,11.07
2023-10-29T08:13:33.040Z,10.32
2023-10-29T08:16:00.291Z,16.80
2023-10-29T08:18:27.354Z,14.82
2023-10-29T08:20:54.417Z,11.07
2023-10-29T08:23:21.394Z,15.02
2023-10-29T08:25:48.335Z,11.80
2023-10-29T08:28:15.290Z,12.32
2023-10-29T08:30:42.263Z,15.45
2023-10-29T08:33:09.323Z,12.18
2023-10-29T08:35:36.350Z,10.38
2023-10-29T08:38:03.987Z,14.25
2023-10-29T08:40:30.873Z,13.73
2023-10-29T08:42:57.813Z,17.60
2023-10-29T08:45:40.993Z,13.45
2023-10-29T08:48:09.440Z,19.42
2023-10-29T08:50:36.608Z,12.43
2023-10-29T08:53:03.595Z,10.90
2023-10-29T08:55:30.604Z,12.50
2023-10-29T08:57:58.206Z,12.15
2023-10-29T09:00:30.424Z,13.52
2023-10-29T09:03:02.512Z,13.20
2023-10-29T09:05:29.914Z,12.27
2023-10-29T09:07:56.852Z,10.05
2023-10-29T09:10:23.840Z,11.90
2023-10-29T09:12:50.875Z,12.40
2023-10-29T09:15:17.985Z,11.13
2023-10-29T09:17:45.191Z,11.52
2023-10-29T09:20:13.487Z,11.77
2023-10-29T09:22:41.959Z,13.93
2023-10-29T09:25:10.488Z,11.32
2023-10-29T09:27:37.808Z,8.73
2023-10-29T09:30:07.117Z,8.55
2023-10-29T09:32:35.745Z,9.63
2023-10-29T09:35:05.951Z,11.30
2023-10-29T09:37:36.428Z,10.37
2023-10-29T09:40:04.256Z,9.07
2023-10-29T09:42:35.600Z,10.10
2023-10-29T09:45:05.151Z,12.57
2023-10-29T09:47:32.885Z,8.55
2023-10-29T09:49:59.929Z,8.93
2023-10-29T09:52:33.739Z,10.35
2023-10-29T09:55:02.357Z,7.32
2023-10-29T09:57:31.297Z,9.77
2023-10-29T10:00:00.389Z,8.50
2023-10-29T10:02:30.313Z,11.00
2023-10-29T10:04:58.169Z,11.70
2023-10-29T10:07:26.482Z,11.95
2023-10-29T10:09:56.996Z,9.25
2023-10-29T10:12:25.649Z,10.30
2023-10-29T10:14:53.782Z,9.77
2023-10-29T10:17:20.856Z,10.38
2023-10-29T10:19:47.759Z,13.13
2023-10-29T11:40:30.862Z,10.23
2023-10-29T11:43:14.428Z,9.07
2023-10-29T11:45:42.046Z,7.72
2023-10-29T11:48:12.856Z,12.55
2023-10-29T11:50:41.227Z,11.52
2023-10-29T11:53:22.516Z,11.50
2023-10-29T11:55:53.129Z,10.55
2023-10-29T11:58:21.510Z,10.23
2023-10-29T12:00:51.112Z,9.85
2023-10-29T12:03:22.201Z,9.63
2023-10-29T12:05:56.553Z,10.63
2023-10-29T12:08:27.433Z,10.05
2023-10-29T12:10:56.761Z,10.23
2023-10-29T12:13:24.139Z,9.68
2023-10-29T12:16:03.860Z,8.50
2023-10-29T12:18:31.134Z,13.52
2023-10-29T12:21:05.918Z,10.30
2023-10-29T12:23:33.990Z,10.55
2023-10-29T12:26:10.868Z,12.73
2023-10-29T12:28:39.012Z,12.05
2023-10-29T12:31:08.641Z,12.70
2023-10-29T12:33:37.819Z,11.80
2023-10-29T12:36:14.821Z,10.93
2023-10-29T12:38:42.857Z,12.45
2023-10-29T12:41:14.237Z,13.73
2023-10-29T12:43:44.226Z,16.33
2023-10-29T12:46:12.610Z,11.80
2023-10-29T12:49:10.863Z,12.20
2023-10-29T12:51:42.710Z,12.68
2023-10-29T12:54:17.858Z,11.80
2023-10-29T12:57:02.750Z,10.68
2023-10-29T12:59:33.422Z,13.80
2023-10-29T13:02:07.613Z,12.32
2023-10-29T13:04:40.214Z,12.18
2023-10-29T13:07:10.157Z,15.10
2023-10-29T13:09:41.814Z,14.55
2023-10-29T13:12:10.686Z,14.10
2023-10-29T13:14:38.261Z,16.13
2023-10-29T13:17:06.027Z,12.60
2023-10-29T13:19:33.201Z,12.05
2023-10-29T13:22:00.495Z,13.73
2023-10-29T13:24:27.528Z,14.00
2023-10-29T13:26:54.556Z,12.05
2023-10-29T13:29:22.137Z,14.55
2023-10-29T13:31:49.304Z,11.65
2023-10-29T13:34:17.265Z,10.18
2023-10-29T13:36:44.405Z,12.30
2023-10-29T13:39:11.572Z,11.85
2023-10-29T13:41:39.655Z,12.00
2023-10-29T13:44:07.470Z,13.38
2023-10-29T13:46:35.002Z,13.95
2023-10-29T13:49:03.805Z,12.02
2023-10-29T13:51:31.072Z,12.43
2023-10-29T13:53:58.211Z,9.55
2023-10-29T13:56:25.295Z,11.90
2023-10-29T13:58:52.350Z,11.52
2023-10-29T14:01:20.496Z,13.70
2023-10-29T14:03:49.893Z,17.33
2023-10-29T14:06:18.151Z,12.27
2023-10-29T14:08:46.042Z,11.85
2023-10-29T14:11:15.872Z,17.27
2023-10-29T14:13:45.725Z,17.13
2023-10-29T14:16:13.785Z,13.82
2023-10-29T14:18:42.137Z,17.85
2023-10-29T14:21:09.154Z,15.25
2023-10-29T14:23:36.413Z,18.23
2023-10-29T14:26:03.436Z,17.20
2023-10-29T14:28:30.366Z,18.70
2023-10-29T14:30:57.662Z,20.65
2023-10-29T14:33:24.949Z,20.60
2023-10-29T14:35:59.032Z,21.20
2023-10-29T14:38:27.376Z,15.13
2023-10-29T14:40:56.969Z,18.17
2023-10-29T14:43:24.323Z,18.35
2023-10-29T14:45:53.968Z,14.23
2023-10-29T14:48:21.423Z,11.88
2023-10-29T14:50:49.452Z,14.13
2023-10-29T14:53:16.702Z,13.15
2023-10-29T14:55:47.810Z,15.13
2023-10-29T15:00:45.119Z,12.23
2023-10-29T15:03:13.225Z,11.68
2023-10-29T15:05:40.830Z,14.43
2023-10-29T15:08:07.982Z,17.20
2023-10-29T15:10:35.378Z,15.18
2023-10-29T15:13:02.429Z,17.25
2023-10-29T15:15:30.611Z,12.85
2023-10-29T15:17:58.703Z,13.20
2023-10-29T15:20:28.158Z,10.93
2023-10-29T15:22:56.432Z,12.57
2023-10-29T15:25:24.449Z,10.40
2023-10-29T15:27:53.935Z,9.20
2023-10-29T15:30:20.948Z,10.85
2023-10-29T15:32:48.080Z,10.02
2023-10-29T15:35:15.285Z,10.98
2023-10-29T15:37:44.158Z,9.93
2023-10-29T15:40:11.444Z,10.35
2023-10-29T15:42:38.875Z,9.10
2023-10-29T15:45:06.601Z,9.43
2023-10-29T15:47:34.074Z,9.80
2023-10-29T15:50:01.887Z,9.68
2023-10-29T15:52:28.831Z,10.90
2023-10-29T15:54:55.855Z,9.98
2023-10-29T15:57:24.395Z,10.70
2023-10-29T15:59:51.782Z,8.40
2023-10-29T16:02:18.740Z,9.95
2023-10-29T16:04:45.976Z,9.88
2023-10-29T16:07:13.037Z,9.13
2023-10-29T16:09:40.011Z,8.50
2023-10-29T16:12:09.498Z,7.88
2023-10-29T16:14:37.829Z,6.82
2023-10-29T16:17:06.238Z,11.45
2023-10-29T16:19:33.237Z,6.90
2023-10-29T16:22:00.313Z,7.70
2023-10-29T16:24:29.543Z,8.40
2023-10-29T16:26:58.226Z,8.18
2023-10-29T16:29:25.620Z,8.05
2023-10-29T16:31:52.737Z,7.18
2023-10-29T16:34:20.427Z,6.80
2023-10-29T16:36:47.846Z,8.88
2023-10-29T16:39:14.811Z,8.30
2023-10-29T16:41:42.069Z,8.45
2023-10-29T16:44:09.044Z,7.57
2023-10-29T16:46:36.179Z,10.07
2023-10-29T16:49:03.487Z,8.15
2023-10-29T16:51:31.019Z,9.40
2023-10-29T16:53:58.245Z,10.40
2023-10-29T16:56:25.266Z,12.65
2023-10-29T16:58:52.181Z,8.63
2023-10-29T17:01:19.436Z,9.82
2023-10-29T17:03:47.082Z,8.45
2023-10-29T17:06:15.829Z,9.52
2023-10-29T17:08:43.116Z,10.93
2023-10-29T17:11:10.298Z,9.27
2023-10-29T17:13:42.715Z,9.30
2023-10-29T17:16:10.117Z,8.75
2023-10-29T17:18:38.466Z,11.35
2023-10-29T17:21:13.934Z,9.00
2023-10-29T17:23:41.145Z,10.30
2023-10-29T17:26:19.220Z,8.90
2023-10-29T17:28:49.435Z,8.32
2023-10-29T17:31:18.758Z,6.85
2023-10-29T17:33:46.982Z,8.00
2023-10-29T17:36:16.389Z,7.15
2023-10-29T17:38:45.318Z,9.05
2023-10-29T17:41:16.060Z,8.10
2023-10-29T17:43:47.238Z,9.75
2023-10-29T17:46:15.654Z,8.10
2023-10-29T17:48:44.558Z,7.07
2023-10-29T17:51:11.658Z,6.90
2023-10-29T17:53:39.524Z,6.50
2023-10-29T17:56:06.832Z,7.30
2023-10-29T17:58:34.614Z,7.00
2023-10-29T18:01:02.581Z,8.90
2023-10-29T18:03:29.810Z,12.23
2023-10-29T18:05:56.979Z,8.10
2023-10-29T18:08:25.160Z,6.72
2023-10-29T18:10:54.957Z,8.00
2023-10-29T18:13:22.222Z,7.50
2023-10-29T18:15:56.634Z,6.22
2023-10-29T18:18:35.753Z,7.03
2023-10-29T18:21:11.596Z,8.02
2023-10-29T18:23:38.758Z,6.72
2023-10-29T18:26:05.674Z,9.15
2023-10-29T18:28:32.749Z,8.57
2023-10-29T18:31:09.172Z,9.68
2023-10-29T18:33:36.444Z,7.78
2023-10-29T18:36:10.600Z,7.45
2023-10-29T18:38:38.522Z,8.35
2023-10-29T18:41:14.775Z,8.70
2023-10-29T18:43:41.728Z,9.57
2023-10-29T18:46:12.260Z,13.18
2023-10-29T18:48:39.511Z,10.30
2023-10-29T18:51:06.598Z,10.40
2023-10-29T18:53:33.624Z,12.20
2023-10-29T18:56:00.531Z,14.63
2023-10-29T18:58:28.135Z,14.63
2023-10-29T19:00:55.104Z,14.85
2023-10-29T19:03:23.927Z,14.30
2023-10-29T19:05:51.817Z,15.38
2023-10-29T19:08:18.984Z,18.17
2023-10-29T19:10:48.494Z,17.65
2023-10-29T19:13:16.148Z,18.52
2023-10-29T19:15:43.068Z,17.55
2023-10-29T19:18:10.701Z,15.48
2023-10-29T19:20:41.560Z,17.15
2023-10-29T19:23:08.443Z,17.33
2023-10-29T19:25:36.735Z,15.15
2023-10-29T19:28:03.818Z,16.92
2023-10-29T19:30:30.791Z,14.38
2023-10-29T19:32:57.796Z,13.10
2023-10-29T19:35:24.763Z,13.02
2023-10-29T19:37:51.644Z,13.57
2023-10-29T19:40:18.610Z,13.27
2023-10-29T19:42:45.772Z,13.45
2023-10-29T19:45:12.719Z,11.95
2023-10-29T19:47:40.283Z,11.98
2023-10-29T19:50:08.443Z,10.82
2023-10-29T19:52:35.373Z,12.52
2023-10-29T19:55:04.357Z,11.23
2023-10-29T19:57:32.073Z,9.73
2023-10-29T19:59:59.054Z,10.10
2023-10-29T20:02:26.423Z,9.13
2023-10-29T20:04:53.852Z,9.23
2023-10-29T20:07:20.811Z,10.13
2023-10-29T20:09:49.382Z,10.65
2023-10-29T20:12:16.608Z,10.18
2023-10-29T20:14:43.997Z,9.35
2023-10-29T20:17:10.912Z,9.30
2023-10-29T20:19:39.065Z,7.80
2023-10-29T20:22:06.177Z,9.13
2023-10-29T20:24:33.376Z,9.75
2023-10-29T20:27:00.627Z,8.65
2023-10-29T20:29:27.571Z,9.90
2023-10-29T20:31:54.640Z,11.70
2023-10-29T20:34:24.062Z,11.38
2023-10-29T20:36:51.098Z,8.77
2023-10-29T20:39:18.331Z,8.25
2023-10-29T20:41:45.339Z,8.70
2023-10-29T20:44:14.000Z,6.95
2023-10-29T20:46:41.109Z,7.43
2023-10-29T20:49:08.397Z,6.97
2023-10-29T20:51:35.403Z,7.63
2023-10-29T20:54:02.365Z,7.78
2023-10-29T20:56:30.655Z,6.75
2023-10-29T20:58:57.535Z,9.30
2023-10-29T21:01:24.565Z,6.63
2023-10-29T21:03:51.767Z,7.68
2023-10-29T21:06:18.805Z,8.93
2023-10-29T21:08:45.787Z,6.88
2023-10-29T21:11:17.175Z,8.27
2023-10-29T21:13:44.818Z,8.48
2023-10-29T21:16:11.823Z,7.50
2023-10-29T21:18:38.805Z,8.00
2023-10-29T21:21:06.136Z,7.88
2023-10-29T21:23:33.249Z,8.00
2023-10-29T21:26:00.371Z,7.07
2023-10-29T21:28:27.504Z,7.82
2023-10-29T21:30:54.599Z,6.93
2023-10-29T21:33:21.648Z,7.18
2023-10-29T21:35:51.520Z,7.82
2023-10-29T21:38:18.816Z,8.57
2023-10-29T21:40:45.770Z,7.60
2023-10-29T21:43:13.175Z,8.35
2023-10-29T21:45:43.108Z,7.65
2023-10-29T21:48:11.414Z,7.00
2023-10-29T21:50:41.955Z,7.97
2023-10-29T21:53:09.349Z,6.60
2023-10-29T21:55:39.447Z,10.75
2023-10-29T21:58:10.136Z,7.50
2023-10-29T22:00:37.504Z,7.88
2023-10-29T22:03:05.952Z,8.38
2023-10-29T22:05:33.226Z,7.28
2023-10-29T22:08:00.261Z,7.30
2023-10-29T22:10:27.240Z,7.25
2023-10-29T22:12:54.641Z,6.93
2023-10-29T22:15:21.734Z,9.00
2023-10-29T22:17:48.723Z,7.10
2023-10-29T22:20:15.997Z,6.82
2023-10-29T22:22:43.047Z,7.80
2023-10-29T22:25:10.148Z,6.35
2023-10-29T22:27:37.219Z,6.07
2023-10-29T22:30:06.473Z,6.65
2023-10-29T22:32:35.048Z,5.70
2023-10-29T22:35:02.065Z,6.30
2023-10-29T22:37:29.021Z,6.95
2023-10-29T22:39:55.978Z,6.28
2023-10-29T22:42:23.775Z,6.55
2023-10-29T22:44:50.824Z,7.32
2023-10-29T22:47:17.776Z,7.18
2023-10-29T22:49:44.765Z,7.63
2023-10-29T22:52:11.718Z,6.78
2023-10-29T22:54:38.710Z,6.32
2023-10-29T22:57:05.794Z,6.60
2023-10-29T22:59:32.868Z,8.80
2023-10-29T23:01:59.821Z,7.25
2023-10-29T23:04:26.854Z,7.55
2023-10-29T23:06:53.870Z,7.22
2023-10-29T23:09:21.746Z,8.55
2023-10-29T23:11:48.733Z,7.95
2023-10-29T23:14:15.684Z,8.50
2023-10-29T23:16:42.711Z,7.15
2023-10-29T23:19:09.641Z,8.35
2023-10-29T23:21:36.608Z,8.05
2023-10-29T23:24:03.665Z,7.47
2023-10-29T23:26:31.022Z,7.97
2023-10-29T23:28:58.232Z,8.93
2023-10-29T23:31:25.213Z,9.82
2023-10-29T23:33:52.176Z,7.57
2023-10-29T23:36:19.964Z,7.60
2023-10-29T23:38:46.988Z,10.13
2023-10-29T23:41:13.915Z,9.18
2023-10-29T23:43:40.864Z,9.68
2023-10-29T23:46:07.897Z,9.40
2023-10-29T23:48:36.207Z,8.52
2023-10-29T23:51:03.354Z,7.88
2023-10-29T23:53:30.296Z,8.93
2023-10-29T23:55:57.467Z,11.32
2023-10-29T23:58:24.463Z,11.00
